sensor_id;sensor_type;location;lat;lon;timestamp;P1;durP1;ratioP1;P2;durP2;ratioP2
7432;SDS011;32233;49.500;7.764;2023-09-12T00:00:38;15.77;;;11.83;;
7432;SDS011;32233;49.500;7.764;2023-09-12T00:03:05;13.93;;;10.83;;
7432;SDS011;32233;49.500;7.764;2023-09-12T00:05:32;14.50;;;10.50;;
7432;SDS011;32233;49.500;7.764;2023-09-12T00:07:58;16.07;;;10.50;;
7432;SDS011;32233;49.500;7.764;2023-09-12T00:10:25;19.20;;;10.80;;
7432;SDS011;32233;49.500;7.764;2023-09-12T00:12:53;16.30;;;10.03;;
7432;SDS011;32233;49.500;7.764;2023-09-12T00:15:20;14.87;;;10.90;;
7432;SDS011;32233;49.500;7.764;2023-09-12T00:17:47;13.80;;;11.27;;
7432;SDS011;32233;49.500;7.764;2023-09-12T00:20:16;14.43;;;10.90;;
7432;SDS011;32233;49.500;7.764;2023-09-12T00:22:43;12.83;;;11.10;;
7432;SDS011;32233;49.500;7.764;2023-09-12T00:25:09;16.30;;;10.93;;
7432;SDS011;32233;49.500;7.764;2023-09-12T00:27:36;12.17;;;10.93;;
7432;SDS011;32233;49.500;7.764;2023-09-12T00:30:03;14.10;;;11.00;;
7432;SDS011;32233;49.500;7.764;2023-09-12T00:32:29;12.97;;;10.30;;
7432;SDS011;32233;49.500;7.764;2023-09-12T00:34:56;14.43;;;10.53;;
7432;SDS011;32233;49.500;7.764;2023-09-12T00:37:23;15.23;;;11.07;;
7432;SDS011;32233;49.500;7.764;2023-09-12T00:39:49;15.93;;;11.67;;
7432;SDS011;32233;49.500;7.764;2023-09-12T00:42:16;13.70;;;11.90;;
7432;SDS011;32233;49.500;7.764;2023-09-12T00:44:43;15.17;;;11.73;;
7432;SDS011;32233;49.500;7.764;2023-09-12T00:47:10;14.70;;;11.00;;
7432;SDS011;32233;49.500;7.764;2023-09-12T00:49:38;15.33;;;11.97;;
7432;SDS011;32233;49.500;7.764;2023-09-12T00:52:06;14.60;;;11.80;;
7432;SDS011;32233;49.500;7.764;2023-09-12T00:54:33;14.70;;;11.53;;
7432;SDS011;32233;49.500;7.764;2023-09-12T00:57:00;13.50;;;11.17;;
7432;SDS011;32233;49.500;7.764;2023-09-12T00:59:27;16.10;;;12.47;;
7432;SDS011;32233;49.500;7.764;2023-09-12T01:01:54;15.03;;;11.60;;
7432;SDS011;32233;49.500;7.764;2023-09-12T01:04:21;13.77;;;11.70;;
7432;SDS011;32233;49.500;7.764;2023-09-12T01:07:00;15.77;;;11.33;;
7432;SDS011;32233;49.500;7.764;2023-09-12T01:09:27;13.43;;;11.27;;
7432;SDS011;32233;49.500;7.764;2023-09-12T01:11:54;15.07;;;11.37;;
7432;SDS011;32233;49.500;7.764;2023-09-12T01:14:21;13.37;;;11.27;;
7432;SDS011;32233;49.500;7.764;2023-09-12T01:16:47;14.83;;;10.73;;
7432;SDS011;32233;49.500;7.764;2023-09-12T01:19:14;13.50;;;11.37;;
7432;SDS011;32233;49.500;7.764;2023-09-12T01:27:22;13.87;;;11.30;;
7432;SDS011;32233;49.500;7.764;2023-09-12T01:29:56;15.63;;;11.33;;
7432;SDS011;32233;49.500;7.764;2023-09-12T01:32:23;16.67;;;10.97;;
7432;SDS011;32233;49.500;7.764;2023-09-12T01:34:50;13.70;;;11.20;;
7432;SDS011;32233;49.500;7.764;2023-09-12T01:37:17;14.37;;;11.07;;
7432;SDS011;32233;49.500;7.764;2023-09-12T01:39:43;15.30;;;11.57;;
7432;SDS011;32233;49.500;7.764;2023-09-12T01:42:11;17.10;;;11.77;;
7432;SDS011;32233;49.500;7.764;2023-09-12T01:44:45;14.83;;;11.87;;
7432;SDS011;32233;49.500;7.764;2023-09-12T01:47:13;17.77;;;12.37;;
7432;SDS011;32233;49.500;7.764;2023-09-12T01:49:40;16.50;;;12.23;;
7432;SDS011;32233;49.500;7.764;2023-09-12T01:52:09;15.90;;;11.80;;
7432;SDS011;32233;49.500;7.764;2023-09-12T01:54:36;20.47;;;13.53;;
7432;SDS011;32233;49.500;7.764;2023-09-12T01:57:04;18.90;;;12.90;;
7432;SDS011;32233;49.500;7.764;2023-09-12T01:59:31;15.47;;;13.20;;
7432;SDS011;32233;49.500;7.764;2023-09-12T02:01:58;16.77;;;13.30;;
7432;SDS011;32233;49.500;7.764;2023-09-12T02:04:24;16.87;;;12.03;;
7432;SDS011;32233;49.500;7.764;2023-09-12T02:06:51;18.03;;;13.10;;
7432;SDS011;32233;49.500;7.764;2023-09-12T02:09:17;20.37;;;12.43;;
7432;SDS011;32233;49.500;7.764;2023-09-12T02:11:46;15.87;;;11.90;;
7432;SDS011;32233;49.500;7.764;2023-09-12T02:14:12;16.90;;;11.47;;
7432;SDS011;32233;49.500;7.764;2023-09-12T02:16:39;14.80;;;11.50;;
7432;SDS011;32233;49.500;7.764;2023-09-12T02:19:10;14.60;;;11.90;;
7432;SDS011;32233;49.500;7.764;2023-09-12T02:21:37;15.83;;;11.43;;
7432;SDS011;32233;49.500;7.764;2023-09-12T02:24:03;15.50;;;11.13;;
7432;SDS011;32233;49.500;7.764;2023-09-12T02:26:30;15.53;;;11.40;;
7432;SDS011;32233;49.500;7.764;2023-09-12T02:29:02;16.30;;;12.13;;
7432;SDS011;32233;49.500;7.764;2023-09-12T02:31:32;17.73;;;11.23;;
7432;SDS011;32233;49.500;7.764;2023-09-12T02:33:58;15.83;;;12.20;;
7432;SDS011;32233;49.500;7.764;2023-09-12T02:36:25;16.27;;;11.77;;
7432;SDS011;32233;49.500;7.764;2023-09-12T02:38:52;14.27;;;11.87;;
7432;SDS011;32233;49.500;7.764;2023-09-12T02:41:18;14.40;;;11.33;;
7432;SDS011;32233;49.500;7.764;2023-09-12T02:43:45;14.73;;;12.00;;
7432;SDS011;32233;49.500;7.764;2023-09-12T02:46:11;14.07;;;11.10;;
7432;SDS011;32233;49.500;7.764;2023-09-12T02:48:39;14.70;;;11.07;;
7432;SDS011;32233;49.500;7.764;2023-09-12T02:51:06;14.23;;;11.73;;
7432;SDS011;32233;49.500;7.764;2023-09-12T02:53:32;16.73;;;11.87;;
7432;SDS011;32233;49.500;7.764;2023-09-12T02:55:59;14.93;;;11.43;;
7432;SDS011;32233;49.500;7.764;2023-09-12T02:58:26;15.43;;;10.93;;
7432;SDS011;32233;49.500;7.764;2023-09-12T03:00:52;13.63;;;11.53;;
7432;SDS011;32233;49.500;7.764;2023-09-12T03:03:21;13.73;;;11.93;;
7432;SDS011;32233;49.500;7.764;2023-09-12T03:05:56;16.83;;;12.80;;
7432;SDS011;32233;49.500;7.764;2023-09-12T03:08:23;14.40;;;11.37;;
7432;SDS011;32233;49.500;7.764;2023-09-12T03:10:56;14.07;;;11.63;;
7432;SDS011;32233;49.500;7.764;2023-09-12T03:13:24;13.70;;;11.30;;
7432;SDS011;32233;49.500;7.764;2023-09-12T03:15:52;20.20;;;11.23;;
7432;SDS011;32233;49.500;7.764;2023-09-12T03:18:19;16.13;;;11.03;;
7432;SDS011;32233;49.500;7.764;2023-09-12T03:20:46;13.43;;;10.87;;
7432;SDS011;32233;49.500;7.764;2023-09-12T03:23:12;17.50;;;11.43;;
7432;SDS011;32233;49.500;7.764;2023-09-12T03:25:39;16.13;;;11.57;;
7432;SDS011;32233;49.500;7.764;2023-09-12T03:28:06;15.43;;;11.67;;
7432;SDS011;32233;49.500;7.764;2023-09-12T03:30:33;12.50;;;11.00;;
7432;SDS011;32233;49.500;7.764;2023-09-12T03:33:01;14.97;;;11.60;;
7432;SDS011;32233;49.500;7.764;2023-09-12T03:35:29;15.03;;;11.87;;
7432;SDS011;32233;49.500;7.764;2023-09-12T03:37:56;14.90;;;12.37;;
7432;SDS011;32233;49.500;7.764;2023-09-12T03:40:22;14.93;;;11.90;;
7432;SDS011;32233;49.500;7.764;2023-09-12T03:42:49;17.23;;;12.77;;
7432;SDS011;32233;49.500;7.764;2023-09-12T03:45:16;14.87;;;12.83;;
7432;SDS011;32233;49.500;7.764;2023-09-12T03:47:42;16.33;;;13.53;;
7432;SDS011;32233;49.500;7.764;2023-09-12T03:50:14;15.80;;;13.50;;
7432;SDS011;32233;49.500;7.764;2023-09-12T03:52:41;15.57;;;12.67;;
7432;SDS011;32233;49.500;7.764;2023-09-12T03:55:08;17.20;;;13.10;;
7432;SDS011;32233;49.500;7.764;2023-09-12T03:57:34;14.10;;;12.60;;
7432;SDS011;32233;49.500;7.764;2023-09-12T04:00:01;17.00;;;13.60;;
7432;SDS011;32233;49.500;7.764;2023-09-12T04:02:38;19.93;;;13.50;;
7432;SDS011;32233;49.500;7.764;2023-09-12T04:05:05;14.80;;;13.03;;
7432;SDS011;32233;49.500;7.764;2023-09-12T04:07:32;18.23;;;12.80;;
7432;SDS011;32233;49.500;7.764;2023-09-12T04:09:59;21.20;;;13.27;;
7432;SDS011;32233;49.500;7.764;2023-09-12T04:12:25;15.00;;;13.07;;
7432;SDS011;32233;49.500;7.764;2023-09-12T04:14:52;17.27;;;13.60;;
7432;SDS011;32233;49.500;7.764;2023-09-12T04:17:19;17.10;;;13.20;;
7432;SDS011;32233;49.500;7.764;2023-09-12T04:19:46;16.47;;;13.20;;
7432;SDS011;32233;49.500;7.764;2023-09-12T04:22:13;19.57;;;12.40;;
7432;SDS011;32233;49.500;7.764;2023-09-12T04:24:40;19.23;;;12.57;;
7432;SDS011;32233;49.500;7.764;2023-09-12T04:27:07;18.37;;;13.27;;
7432;SDS011;32233;49.500;7.764;2023-09-12T04:29:34;18.87;;;13.20;;
7432;SDS011;32233;49.500;7.764;2023-09-12T04:32:03;16.50;;;13.00;;
7432;SDS011;32233;49.500;7.764;2023-09-12T04:34:30;18.07;;;13.40;;
7432;SDS011;32233;49.500;7.764;2023-09-12T04:36:57;17.20;;;12.87;;
7432;SDS011;32233;49.500;7.764;2023-09-12T04:39:24;17.80;;;13.83;;
7432;SDS011;32233;49.500;7.764;2023-09-12T04:41:51;17.13;;;13.33;;
7432;SDS011;32233;49.500;7.764;2023-09-12T04:44:18;17.90;;;13.87;;
7432;SDS011;32233;49.500;7.764;2023-09-12T04:46:44;22.30;;;14.43;;
7432;SDS011;32233;49.500;7.764;2023-09-12T04:49:12;17.27;;;14.73;;
7432;SDS011;32233;49.500;7.764;2023-09-12T04:51:39;18.03;;;14.20;;
7432;SDS011;32233;49.500;7.764;2023-09-12T04:54:06;17.43;;;14.27;;
7432;SDS011;32233;49.500;7.764;2023-09-12T04:56:33;17.27;;;13.90;;
7432;SDS011;32233;49.500;7.764;2023-09-12T04:58:59;19.27;;;15.17;;
7432;SDS011;32233;49.500;7.764;2023-09-12T05:01:26;19.40;;;15.23;;
7432;SDS011;32233;49.500;7.764;2023-09-12T05:03:52;20.57;;;16.20;;
7432;SDS011;32233;49.500;7.764;2023-09-12T05:06:19;18.13;;;15.57;;
7432;SDS011;32233;49.500;7.764;2023-09-12T05:08:46;17.63;;;15.27;;
7432;SDS011;32233;49.500;7.764;2023-09-12T05:11:12;15.57;;;14.00;;
7432;SDS011;32233;49.500;7.764;2023-09-12T05:13:39;17.63;;;14.43;;
7432;SDS011;32233;49.500;7.764;2023-09-12T05:16:06;18.77;;;15.47;;
7432;SDS011;32233;49.500;7.764;2023-09-12T05:18:32;17.40;;;14.63;;
7432;SDS011;32233;49.500;7.764;2023-09-12T05:20:59;16.80;;;14.33;;
7432;SDS011;32233;49.500;7.764;2023-09-12T05:23:26;17.47;;;14.27;;
7432;SDS011;32233;49.500;7.764;2023-09-12T05:25:53;20.23;;;15.40;;
7432;SDS011;32233;49.500;7.764;2023-09-12T05:28:19;18.27;;;15.43;;
7432;SDS011;32233;49.500;7.764;2023-09-12T05:30:48;18.80;;;15.17;;
7432;SDS011;32233;49.500;7.764;2023-09-12T05:33:15;19.50;;;15.17;;
7432;SDS011;32233;49.500;7.764;2023-09-12T05:35:43;18.50;;;15.47;;
7432;SDS011;32233;49.500;7.764;2023-09-12T05:38:10;22.00;;;15.47;;
7432;SDS011;32233;49.500;7.764;2023-09-12T05:40:37;18.63;;;14.83;;
7432;SDS011;32233;49.500;7.764;2023-09-12T05:43:04;18.80;;;13.70;;
7432;SDS011;32233;49.500;7.764;2023-09-12T05:45:30;17.00;;;13.60;;
7432;SDS011;32233;49.500;7.764;2023-09-12T05:47:59;20.40;;;14.23;;
7432;SDS011;32233;49.500;7.764;2023-09-12T05:50:27;18.67;;;13.77;;
7432;SDS011;32233;49.500;7.764;2023-09-12T05:52:54;20.33;;;13.50;;
7432;SDS011;32233;49.500;7.764;2023-09-12T05:55:21;19.53;;;15.00;;
7432;SDS011;32233;49.500;7.764;2023-09-12T05:57:48;20.20;;;14.10;;
7432;SDS011;32233;49.500;7.764;2023-09-12T06:00:19;22.83;;;15.83;;
7432;SDS011;32233;49.500;7.764;2023-09-12T06:02:47;21.57;;;16.10;;
7432;SDS011;32233;49.500;7.764;2023-09-12T06:05:15;23.70;;;16.83;;
7432;SDS011;32233;49.500;7.764;2023-09-12T06:07:42;26.13;;;18.27;;
7432;SDS011;32233;49.500;7.764;2023-09-12T06:10:09;23.60;;;17.00;;
7432;SDS011;32233;49.500;7.764;2023-09-12T06:12:36;23.60;;;17.43;;
7432;SDS011;32233;49.500;7.764;2023-09-12T06:15:03;22.33;;;17.07;;
7432;SDS011;32233;49.500;7.764;2023-09-12T06:17:30;21.20;;;16.53;;
7432;SDS011;32233;49.500;7.764;2023-09-12T06:19:57;18.93;;;15.10;;
7432;SDS011;32233;49.500;7.764;2023-09-12T06:22:24;17.63;;;14.50;;
7432;SDS011;32233;49.500;7.764;2023-09-12T06:24:51;15.33;;;13.70;;
7432;SDS011;32233;49.500;7.764;2023-09-12T06:27:18;19.87;;;14.27;;
7432;SDS011;32233;49.500;7.764;2023-09-12T06:29:47;15.83;;;13.30;;
7432;SDS011;32233;49.500;7.764;2023-09-12T06:32:15;17.10;;;13.27;;
7432;SDS011;32233;49.500;7.764;2023-09-12T06:34:42;17.20;;;13.07;;
7432;SDS011;32233;49.500;7.764;2023-09-12T06:37:10;15.73;;;11.40;;
7432;SDS011;32233;49.500;7.764;2023-09-12T06:39:37;16.13;;;12.10;;
7432;SDS011;32233;49.500;7.764;2023-09-12T06:42:04;13.30;;;11.00;;
7432;SDS011;32233;49.500;7.764;2023-09-12T06:44:31;16.43;;;11.03;;
7432;SDS011;32233;49.500;7.764;2023-09-12T06:46:57;13.80;;;10.70;;
7432;SDS011;32233;49.500;7.764;2023-09-12T06:49:24;13.43;;;10.43;;
7432;SDS011;32233;49.500;7.764;2023-09-12T06:51:50;15.00;;;11.23;;
7432;SDS011;32233;49.500;7.764;2023-09-12T06:54:17;13.27;;;10.30;;
7432;SDS011;32233;49.500;7.764;2023-09-12T06:56:44;14.63;;;10.67;;
7432;SDS011;32233;49.500;7.764;2023-09-12T06:59:10;12.67;;;9.87;;
7432;SDS011;32233;49.500;7.764;2023-09-12T07:01:37;16.37;;;10.23;;
7432;SDS011;32233;49.500;7.764;2023-09-12T07:04:04;11.23;;;10.03;;
7432;SDS011;32233;49.500;7.764;2023-09-12T07:06:31;12.07;;;10.43;;
7432;SDS011;32233;49.500;7.764;2023-09-12T07:08:59;13.80;;;10.53;;
7432;SDS011;32233;49.500;7.764;2023-09-12T07:11:26;12.53;;;10.67;;
7432;SDS011;32233;49.500;7.764;2023-09-12T07:13:52;45.23;;;11.83;;
7432;SDS011;32233;49.500;7.764;2023-09-12T07:16:19;18.77;;;12.17;;
7432;SDS011;32233;49.500;7.764;2023-09-12T07:18:50;14.40;;;11.70;;
7432;SDS011;32233;49.500;7.764;2023-09-12T07:21:17;13.93;;;10.70;;
7432;SDS011;32233;49.500;7.764;2023-09-12T07:23:44;17.17;;;11.60;;
7432;SDS011;32233;49.500;7.764;2023-09-12T07:26:12;12.50;;;11.23;;
7432;SDS011;32233;49.500;7.764;2023-09-12T07:28:40;12.77;;;10.17;;
7432;SDS011;32233;49.500;7.764;2023-09-12T07:31:07;16.60;;;10.50;;
7432;SDS011;32233;49.500;7.764;2023-09-12T07:33:35;12.93;;;10.13;;
7432;SDS011;32233;49.500;7.764;2023-09-12T07:36:01;13.90;;;11.30;;
7432;SDS011;32233;49.500;7.764;2023-09-12T07:38:31;15.27;;;11.00;;
7432;SDS011;32233;49.500;7.764;2023-09-12T07:40:58;16.50;;;10.20;;
7432;SDS011;32233;49.500;7.764;2023-09-12T07:43:26;15.30;;;10.10;;
7432;SDS011;32233;49.500;7.764;2023-09-12T07:45:56;16.43;;;10.33;;
7432;SDS011;32233;49.500;7.764;2023-09-12T07:48:24;10.93;;;9.80;;
7432;SDS011;32233;49.500;7.764;2023-09-12T07:50:50;10.90;;;9.73;;
7432;SDS011;32233;49.500;7.764;2023-09-12T07:53:17;11.43;;;9.80;;
7432;SDS011;32233;49.500;7.764;2023-09-12T07:55:44;12.43;;;9.43;;
7432;SDS011;32233;49.500;7.764;2023-09-12T07:58:14;17.40;;;9.80;;
7432;SDS011;32233;49.500;7.764;2023-09-12T08:00:41;11.77;;;9.10;;
7432;SDS011;32233;49.500;7.764;2023-09-12T08:03:08;11.70;;;9.40;;
7432;SDS011;32233;49.500;7.764;2023-09-12T08:05:35;10.30;;;9.30;;
7432;SDS011;32233;49.500;7.764;2023-09-12T08:08:02;11.13;;;9.83;;
7432;SDS011;32233;49.500;7.764;2023-09-12T08:10:29;16.13;;;10.10;;
7432;SDS011;32233;49.500;7.764;2023-09-12T08:12:55;12.40;;;9.57;;
7432;SDS011;32233;49.500;7.764;2023-09-12T08:15:22;11.30;;;9.13;;
7432;SDS011;32233;49.500;7.764;2023-09-12T08:17:49;14.60;;;10.23;;
7432;SDS011;32233;49.500;7.764;2023-09-12T08:20:19;12.80;;;9.60;;
7432;SDS011;32233;49.500;7.764;2023-09-12T08:22:46;11.27;;;9.53;;
7432;SDS011;32233;49.500;7.764;2023-09-12T08:25:13;12.10;;;9.60;;
7432;SDS011;32233;49.500;7.764;2023-09-12T08:27:41;15.00;;;10.67;;
7432;SDS011;32233;49.500;7.764;2023-09-12T08:30:10;13.57;;;9.07;;
7432;SDS011;32233;49.500;7.764;2023-09-12T08:32:39;12.00;;;9.83;;
7432;SDS011;32233;49.500;7.764;2023-09-12T08:35:10;12.77;;;10.10;;
7432;SDS011;32233;49.500;7.764;2023-09-12T08:37:42;15.50;;;10.60;;
7432;SDS011;32233;49.500;7.764;2023-09-12T08:40:10;10.90;;;9.30;;
7432;SDS011;32233;49.500;7.764;2023-09-12T08:42:38;14.77;;;10.17;;
7432;SDS011;32233;49.500;7.764;2023-09-12T08:47:41;18.20;;;10.80;;
7432;SDS011;32233;49.500;7.764;2023-09-12T08:50:10;13.67;;;9.93;;
7432;SDS011;32233;49.500;7.764;2023-09-12T08:52:42;15.50;;;10.00;;
7432;SDS011;32233;49.500;7.764;2023-09-12T08:55:29;12.27;;;10.37;;
7432;SDS011;32233;49.500;7.764;2023-09-12T08:57:59;13.70;;;10.07;;
7432;SDS011;32233;49.500;7.764;2023-09-12T09:00:29;14.80;;;10.23;;
7432;SDS011;32233;49.500;7.764;2023-09-12T09:02:56;15.07;;;11.30;;
7432;SDS011;32233;49.500;7.764;2023-09-12T09:05:24;12.77;;;11.03;;
7432;SDS011;32233;49.500;7.764;2023-09-12T09:07:53;12.43;;;10.23;;
7432;SDS011;32233;49.500;7.764;2023-09-12T09:10:22;15.17;;;10.10;;
7432;SDS011;32233;49.500;7.764;2023-09-12T09:13:09;13.07;;;10.77;;
7432;SDS011;32233;49.500;7.764;2023-09-12T09:15:36;14.13;;;9.97;;
7432;SDS011;32233;49.500;7.764;2023-09-12T09:18:08;16.00;;;10.43;;
7432;SDS011;32233;49.500;7.764;2023-09-12T09:20:37;12.30;;;10.73;;
7432;SDS011;32233;49.500;7.764;2023-09-12T09:23:05;13.83;;;11.13;;
7432;SDS011;32233;49.500;7.764;2023-09-12T09:25:35;12.80;;;11.03;;
7432;SDS011;32233;49.500;7.764;2023-09-12T09:28:06;11.20;;;10.10;;
7432;SDS011;32233;49.500;7.764;2023-09-12T09:30:43;13.97;;;11.40;;
7432;SDS011;32233;49.500;7.764;2023-09-12T09:33:11;12.87;;;10.00;;
7432;SDS011;32233;49.500;7.764;2023-09-12T09:35:43;13.37;;;10.63;;
7432;SDS011;32233;49.500;7.764;2023-09-12T09:38:13;11.57;;;10.33;;
7432;SDS011;32233;49.500;7.764;2023-09-12T09:40:45;11.53;;;10.30;;
7432;SDS011;32233;49.500;7.764;2023-09-12T09:43:12;11.93;;;10.00;;
7432;SDS011;32233;49.500;7.764;2023-09-12T09:45:44;11.23;;;10.13;;
7432;SDS011;32233;49.500;7.764;2023-09-12T09:48:19;11.90;;;9.30;;
7432;SDS011;32233;49.500;7.764;2023-09-12T09:50:49;11.97;;;9.73;;
7432;SDS011;32233;49.500;7.764;2023-09-12T09:53:21;10.70;;;9.60;;
7432;SDS011;32233;49.500;7.764;2023-09-12T09:56:09;11.40;;;10.30;;
7432;SDS011;32233;49.500;7.764;2023-09-12T09:58:42;15.17;;;11.97;;
7432;SDS011;32233;49.500;7.764;2023-09-12T10:01:14;11.43;;;10.43;;
7432;SDS011;32233;49.500;7.764;2023-09-12T10:03:51;12.23;;;10.03;;
7432;SDS011;32233;49.500;7.764;2023-09-12T10:06:19;12.77;;;10.27;;
7432;SDS011;32233;49.500;7.764;2023-09-12T10:08:49;10.80;;;9.83;;
7432;SDS011;32233;49.500;7.764;2023-09-12T10:11:17;11.47;;;10.37;;
7432;SDS011;32233;49.500;7.764;2023-09-12T10:13:49;13.57;;;9.60;;
7432;SDS011;32233;49.500;7.764;2023-09-12T10:16:19;12.37;;;10.10;;
7432;SDS011;32233;49.500;7.764;2023-09-12T10:18:50;13.27;;;9.97;;
7432;SDS011;32233;49.500;7.764;2023-09-12T10:21:27;13.47;;;10.33;;
7432;SDS011;32233;49.500;7.764;2023-09-12T10:23:58;11.00;;;9.90;;
7432;SDS011;32233;49.500;7.764;2023-09-12T10:26:25;11.10;;;10.10;;
7432;SDS011;32233;49.500;7.764;2023-09-12T10:28:52;11.13;;;10.03;;
7432;SDS011;32233;49.500;7.764;2023-09-12T10:31:19;11.50;;;10.23;;
7432;SDS011;32233;49.500;7.764;2023-09-12T10:33:46;13.90;;;11.23;;
7432;SDS011;32233;49.500;7.764;2023-09-12T10:36:13;11.87;;;10.73;;
7432;SDS011;32233;49.500;7.764;2023-09-12T10:38:44;11.67;;;10.00;;
7432;SDS011;32233;49.500;7.764;2023-09-12T10:41:13;11.93;;;10.73;;
7432;SDS011;32233;49.500;7.764;2023-09-12T10:43:41;11.13;;;9.97;;
7432;SDS011;32233;49.500;7.764;2023-09-12T10:46:10;12.73;;;11.43;;
7432;SDS011;32233;49.500;7.764;2023-09-12T10:48:36;12.17;;;10.20;;
7432;SDS011;32233;49.500;7.764;2023-09-12T10:51:03;11.13;;;10.03;;
7432;SDS011;32233;49.500;7.764;2023-09-12T10:53:31;11.17;;;10.07;;
7432;SDS011;32233;49.500;7.764;2023-09-12T10:59:21;12.17;;;10.03;;
7432;SDS011;32233;49.500;7.764;2023-09-12T11:01:36;11.33;;;9.90;;
7432;SDS011;32233;49.500;7.764;2023-09-12T11:06:46;11.30;;;9.83;;
7432;SDS011;32233;49.500;7.764;2023-09-12T11:09:23;11.03;;;9.70;;
7432;SDS011;32233;49.500;7.764;2023-09-12T11:11:58;10.97;;;9.63;;
7432;SDS011;32233;49.500;7.764;2023-09-12T11:14:29;11.67;;;10.30;;
7432;SDS011;32233;49.500;7.764;2023-09-12T11:19:44;12.00;;;10.80;;
7432;SDS011;32233;49.500;7.764;2023-09-12T11:24:48;12.77;;;10.20;;
7432;SDS011;32233;49.500;7.764;2023-09-12T11:27:15;11.63;;;10.50;;
7432;SDS011;32233;49.500;7.764;2023-09-12T11:29:43;12.40;;;10.47;;
7432;SDS011;32233;49.500;7.764;2023-09-12T11:32:11;12.00;;;9.80;;
7432;SDS011;32233;49.500;7.764;2023-09-12T11:34:51;13.47;;;10.07;;
7432;SDS011;32233;49.500;7.764;2023-09-12T11:37:27;10.80;;;9.70;;
7432;SDS011;32233;49.500;7.764;2023-09-12T11:39:56;13.47;;;10.13;;
7432;SDS011;32233;49.500;7.764;2023-09-12T11:42:24;10.80;;;9.88;;
7432;SDS011;32233;49.500;7.764;2023-09-12T11:44:54;11.25;;;9.38;;
7432;SDS011;32233;49.500;7.764;2023-09-12T11:47:22;10.13;;;9.13;;
7432;SDS011;32233;49.500;7.764;2023-09-12T11:49:50;10.30;;;9.30;;
7432;SDS011;32233;49.500;7.764;2023-09-12T11:52:16;11.65;;;10.55;;
7432;SDS011;32233;49.500;7.764;2023-09-12T11:54:43;11.10;;;9.65;;
7432;SDS011;32233;49.500;7.764;2023-09-12T11:57:14;11.55;;;10.32;;
7432;SDS011;32233;49.500;7.764;2023-09-12T11:59:44;12.13;;;10.93;;
7432;SDS011;32233;49.500;7.764;2023-09-12T12:02:14;12.45;;;11.15;;
7432;SDS011;32233;49.500;7.764;2023-09-12T12:04:41;10.68;;;9.77;;
7432;SDS011;32233;49.500;7.764;2023-09-12T12:07:08;12.32;;;11.18;;
7432;SDS011;32233;49.500;7.764;2023-09-12T12:09:36;12.73;;;11.20;;
7432;SDS011;32233;49.500;7.764;2023-09-12T12:12:12;12.18;;;10.38;;
7432;SDS011;32233;49.500;7.764;2023-09-12T12:14:41;14.15;;;10.50;;
7432;SDS011;32233;49.500;7.764;2023-09-12T12:17:08;12.18;;;10.73;;
7432;SDS011;32233;49.500;7.764;2023-09-12T12:19:36;11.27;;;10.27;;
7432;SDS011;32233;49.500;7.764;2023-09-12T12:22:04;11.63;;;10.43;;
7432;SDS011;32233;49.500;7.764;2023-09-12T12:27:05;10.90;;;9.93;;
7432;SDS011;32233;49.500;7.764;2023-09-12T12:29:32;11.40;;;10.25;;
7432;SDS011;32233;49.500;7.764;2023-09-12T12:32:00;10.93;;;9.52;;
7432;SDS011;32233;49.500;7.764;2023-09-12T12:34:31;10.52;;;9.40;;
7432;SDS011;32233;49.500;7.764;2023-09-12T12:37:18;12.40;;;10.70;;
7432;SDS011;32233;49.500;7.764;2023-09-12T12:39:45;11.68;;;10.07;;
7432;SDS011;32233;49.500;7.764;2023-09-12T12:42:12;10.30;;;9.30;;
7432;SDS011;32233;49.500;7.764;2023-09-12T12:44:38;10.27;;;9.45;;
7432;SDS011;32233;49.500;7.764;2023-09-12T12:47:08;9.73;;;8.88;;
7432;SDS011;32233;49.500;7.764;2023-09-12T12:49:38;9.43;;;8.63;;
7432;SDS011;32233;49.500;7.764;2023-09-12T12:52:08;9.50;;;8.70;;
7432;SDS011;32233;49.500;7.764;2023-09-12T12:54:36;9.13;;;8.23;;
7432;SDS011;32233;49.500;7.764;2023-09-12T12:57:03;9.82;;;8.85;;
7432;SDS011;32233;49.500;7.764;2023-09-12T12:59:29;9.27;;;8.50;;
7432;SDS011;32233;49.500;7.764;2023-09-12T13:02:00;9.45;;;8.57;;
7432;SDS011;32233;49.500;7.764;2023-09-12T13:04:34;7.90;;;7.30;;
7432;SDS011;32233;49.500;7.764;2023-09-12T13:07:03;8.38;;;7.78;;
7432;SDS011;32233;49.500;7.764;2023-09-12T13:09:31;8.77;;;7.88;;
7432;SDS011;32233;49.500;7.764;2023-09-12T13:11:58;8.65;;;7.85;;
7432;SDS011;32233;49.500;7.764;2023-09-12T13:14:25;8.50;;;7.68;;
7432;SDS011;32233;49.500;7.764;2023-09-12T13:16:57;9.55;;;8.75;;
7432;SDS011;32233;49.500;7.764;2023-09-12T13:19:25;9.05;;;8.25;;
7432;SDS011;32233;49.500;7.764;2023-09-12T13:21:52;9.23;;;8.43;;
7432;SDS011;32233;49.500;7.764;2023-09-12T13:24:19;9.55;;;8.50;;
7432;SDS011;32233;49.500;7.764;2023-09-12T13:26:46;8.93;;;7.97;;
7432;SDS011;32233;49.500;7.764;2023-09-12T13:29:12;9.43;;;8.05;;
7432;SDS011;32233;49.500;7.764;2023-09-12T13:31:39;9.77;;;8.88;;
7432;SDS011;32233;49.500;7.764;2023-09-12T13:34:06;9.63;;;8.70;;
7432;SDS011;32233;49.500;7.764;2023-09-12T13:36:33;9.48;;;8.68;;
7432;SDS011;32233;49.500;7.764;2023-09-12T13:38:59;9.38;;;8.40;;
7432;SDS011;32233;49.500;7.764;2023-09-12T13:41:26;9.18;;;8.27;;
7432;SDS011;32233;49.500;7.764;2023-09-12T13:43:53;10.48;;;9.35;;
7432;SDS011;32233;49.500;7.764;2023-09-12T13:46:20;13.20;;;8.73;;
7432;SDS011;32233;49.500;7.764;2023-09-12T13:48:47;9.48;;;8.65;;
7432;SDS011;32233;49.500;7.764;2023-09-12T13:51:15;9.95;;;9.00;;
7432;SDS011;32233;49.500;7.764;2023-09-12T13:53:41;9.30;;;8.43;;
7432;SDS011;32233;49.500;7.764;2023-09-12T13:56:08;9.50;;;8.60;;
7432;SDS011;32233;49.500;7.764;2023-09-12T13:58:35;9.15;;;8.25;;
7432;SDS011;32233;49.500;7.764;2023-09-12T14:01:10;9.35;;;8.43;;
7432;SDS011;32233;49.500;7.764;2023-09-12T14:03:43;9.65;;;8.45;;
7432;SDS011;32233;49.500;7.764;2023-09-12T14:06:10;9.18;;;8.32;;
7432;SDS011;32233;49.500;7.764;2023-09-12T14:08:37;9.15;;;8.25;;
7432;SDS011;32233;49.500;7.764;2023-09-12T14:11:03;9.27;;;8.23;;
7432;SDS011;32233;49.500;7.764;2023-09-12T14:13:33;9.38;;;8.40;;
7432;SDS011;32233;49.500;7.764;2023-09-12T14:16:00;9.38;;;8.20;;
7432;SDS011;32233;49.500;7.764;2023-09-12T14:18:27;9.68;;;8.68;;
7432;SDS011;32233;49.500;7.764;2023-09-12T14:20:54;8.75;;;7.90;;
7432;SDS011;32233;49.500;7.764;2023-09-12T14:23:22;9.35;;;8.07;;
7432;SDS011;32233;49.500;7.764;2023-09-12T14:25:49;8.43;;;7.63;;
7432;SDS011;32233;49.500;7.764;2023-09-12T14:28:16;8.75;;;7.95;;
7432;SDS011;32233;49.500;7.764;2023-09-12T14:30:44;12.27;;;8.30;;
7432;SDS011;32233;49.500;7.764;2023-09-12T14:33:12;10.07;;;8.15;;
7432;SDS011;32233;49.500;7.764;2023-09-12T14:35:43;8.32;;;7.53;;
7432;SDS011;32233;49.500;7.764;2023-09-12T14:38:09;9.05;;;8.23;;
7432;SDS011;32233;49.500;7.764;2023-09-12T14:40:36;8.35;;;7.53;;
7432;SDS011;32233;49.500;7.764;2023-09-12T14:43:04;8.38;;;7.57;;
7432;SDS011;32233;49.500;7.764;2023-09-12T14:45:30;9.75;;;7.82;;
7432;SDS011;32233;49.500;7.764;2023-09-12T14:47:59;8.23;;;7.40;;
7432;SDS011;32233;49.500;7.764;2023-09-12T14:50:25;9.98;;;8.50;;
7432;SDS011;32233;49.500;7.764;2023-09-12T14:53:07;9.33;;;7.77;;
7432;SDS011;32233;49.500;7.764;2023-09-12T14:55:34;8.95;;;8.15;;
7432;SDS011;32233;49.500;7.764;2023-09-12T14:58:00;9.13;;;8.25;;
7432;SDS011;32233;49.500;7.764;2023-09-12T15:00:27;13.55;;;8.20;;
7432;SDS011;32233;49.500;7.764;2023-09-12T15:02:54;9.43;;;7.50;;
7432;SDS011;32233;49.500;7.764;2023-09-12T15:05:21;9.20;;;8.40;;
7432;SDS011;32233;49.500;7.764;2023-09-12T15:07:48;10.90;;;7.68;;